Obera, Argentina
Current Conditions -  °F | °C
As of 6:00 AM on Thursday 18 Dec 2014 (Local Time) from SARP Reporting Station
Clear Clear  
Wind Chill: 70°   Ceiling: Unl
Heat Index: 70°   Visibility: 6mi
Dew Point: 68°   Wind: 6mph
Humidity: 94%   Direction: 160°SSE
Pressure: 29.88"   Gusts: NA
Location:  27.48°S, 55.13°W
Report Text: SARP 180900Z 16005KT 9999 21/20 Q1012
Loading
Personal Weather Stations






























Interactive Weather Map New forecast layout! Learn more

10-Day Weather Forecast

Advertisements
Track Severe Weather on mobile